Time;durP1;ratioP1;P1;durP2;ratioP2;P2;SDS_P1;SDS_P2;PMS_P1;PMS_P2;Temp;Humidity;BMP_temperature;BMP_pressure;BME280_temperature;BME280_humidity;BME280_pressure;Samples;Min_cycle;Max_cycle;Signal;HPM_P1;HPM_P2
2021/12/22 00:01:25;;;;;;;10.35;4.65;;;;;;;-10.23;66.91;100476.13;1755727;80;21053;-73
2021/12/22 00:03:52;;;;;;;8.25;4.90;;;;;;;-10.22;66.92;100477.87;1756160;80;21002;-74
2021/12/22 00:06:23;;;;;;;9.18;4.80;;;;;;;-10.24;66.87;100479.11;1752901;81;21018;-74
2021/12/22 00:08:50;;;;;;;9.10;4.25;;;;;;;-10.27;66.96;100481.66;1752706;81;21440;-74
2021/12/22 00:11:17;;;;;;;7.55;4.37;;;;;;;-10.24;67.06;100487.20;1751772;81;20948;-74
2021/12/22 00:13:45;;;;;;;8.50;4.83;;;;;;;-10.24;67.05;100493.16;1756141;80;21410;-74
2021/12/22 00:16:11;;;;;;;6.30;3.75;;;;;;;-10.25;66.99;100483.79;1752604;81;21597;-74
2021/12/22 00:18:37;;;;;;;9.13;4.60;;;;;;;-10.24;67.04;100482.09;1752558;82;20967;-73
2021/12/22 00:21:04;;;;;;;8.78;4.80;;;;;;;-10.25;67.06;100489.32;1752775;81;21771;-74
2021/12/22 00:23:30;;;;;;;6.67;4.40;;;;;;;-10.23;67.04;100485.07;1752366;81;21002;-74
2021/12/22 00:25:57;;;;;;;7.08;4.20;;;;;;;-10.23;66.99;100485.07;1747623;81;21437;-75
2021/12/22 00:28:24;;;;;;;8.30;4.35;;;;;;;-10.28;67.01;100491.44;1749192;82;21064;-74
2021/12/22 00:30:52;;;;;;;9.50;4.87;;;;;;;-10.32;66.95;100485.89;1738373;81;20963;-73
2021/12/22 00:33:19;;;;;;;8.73;5.00;;;;;;;-10.33;66.91;100490.96;1752655;82;22198;-73
2021/12/22 00:35:46;;;;;;;8.73;4.80;;;;;;;-10.37;66.96;100493.93;1752407;81;20944;-74
2021/12/22 00:38:17;;;;;;;8.25;4.80;;;;;;;-10.37;66.96;100493.93;1752541;81;21078;-73
2021/12/22 00:40:44;;;;;;;7.87;4.55;;;;;;;-10.43;66.99;100496.00;1752609;82;20987;-74
2021/12/22 00:43:11;;;;;;;8.28;4.83;;;;;;;-10.47;67.09;100495.56;1752594;82;20999;-73
2021/12/22 00:45:39;;;;;;;9.38;4.45;;;;;;;-10.46;67.08;100491.30;1751822;82;21775;-74
2021/12/22 00:48:07;;;;;;;9.63;4.67;;;;;;;-10.47;67.10;100486.62;1753078;80;20939;-75
2021/12/22 00:50:36;;;;;;;9.00;4.17;;;;;;;-10.50;67.10;100486.61;1752584;82;21019;-74
2021/12/22 00:53:02;;;;;;;9.43;4.65;;;;;;;-10.54;67.01;100489.97;1752649;82;21704;-74
2021/12/22 00:55:29;;;;;;;11.30;4.78;;;;;;;-10.60;67.05;100484.83;1752543;82;20991;-74
2021/12/22 00:57:55;;;;;;;7.65;4.70;;;;;;;-10.63;67.06;100483.93;1752561;81;22156;-73
2021/12/22 01:00:24;;;;;;;9.30;4.83;;;;;;;-10.64;67.12;100483.08;1752452;82;21018;-74
2021/12/22 01:02:51;;;;;;;9.80;4.67;;;;;;;-10.66;67.04;100485.19;1751992;81;21058;-73
2021/12/22 01:05:18;;;;;;;9.28;4.62;;;;;;;-10.69;67.04;100486.89;1747232;81;21035;-74
2021/12/22 01:07:47;;;;;;;9.15;4.80;;;;;;;-10.71;66.98;100491.13;1782053;79;20991;-74
2021/12/22 01:10:13;;;;;;;9.95;5.33;;;;;;;-10.74;66.98;100489.80;1773656;79;22626;-73
2021/12/22 01:12:40;;;;;;;8.70;5.15;;;;;;;-10.78;66.91;100485.95;1745585;82;21160;-73
2021/12/22 01:15:11;;;;;;;10.03;5.20;;;;;;;-10.84;66.95;100481.64;1795500;79;20941;-73
2021/12/22 01:17:41;;;;;;;9.38;5.42;;;;;;;-10.87;66.96;100484.17;1810247;79;21039;-73
2021/12/22 01:20:13;;;;;;;9.80;5.12;;;;;;;-10.88;67.01;100484.16;1795563;79;20932;-75
2021/12/22 01:25:09;;;;;;;12.53;5.20;;;;;;;-10.92;67.01;100483.68;1780558;79;20949;-74
2021/12/22 01:27:40;;;;;;;11.25;5.50;;;;;;;-10.95;66.99;100490.89;1778006;80;21423;-74
2021/12/22 01:30:12;;;;;;;8.53;5.20;;;;;;;-10.96;67.03;100491.73;1775170;79;21075;-74
2021/12/22 01:32:39;;;;;;;8.38;4.95;;;;;;;-11.00;67.06;100485.77;1769623;79;21020;-74
2021/12/22 01:35:09;;;;;;;10.20;5.28;;;;;;;-11.02;67.08;100489.97;1745885;80;21764;-73
2021/12/22 01:37:36;;;;;;;10.30;5.08;;;;;;;-11.08;66.99;100487.80;1758934;80;21348;-74
2021/12/22 01:40:05;;;;;;;8.38;5.03;;;;;;;-11.12;67.02;100488.59;1767091;81;21013;-74
2021/12/22 01:42:32;;;;;;;7.78;4.72;;;;;;;-11.15;67.03;100486.88;1786551;79;20957;-75
2021/12/22 01:45:13;;;;;;;9.03;4.62;;;;;;;-11.18;67.01;100485.58;1745993;81;21408;-74
2021/12/22 01:50:16;;;;;;;10.80;6.00;;;;;;;-11.26;66.94;100482.09;1736171;82;21008;-74
2021/12/22 01:52:43;;;;;;;13.75;6.70;;;;;;;-11.31;66.90;100485.00;1751716;79;21411;-75
2021/12/22 01:55:35;;;;;;;26.90;10.38;;;;;;;-11.37;66.87;100484.95;1783299;79;21085;-74
2021/12/22 01:58:00;;;;;;;37.85;12.90;;;;;;;-11.43;66.85;100480.63;1809990;79;21011;-74
2021/12/22 02:00:27;;;;;;;34.13;14.13;;;;;;;-11.47;66.81;100483.14;1769442;79;22855;-73
2021/12/22 02:02:55;;;;;;;46.30;17.40;;;;;;;-11.51;66.83;100487.33;1747037;79;20977;-74
2021/12/22 02:05:22;;;;;;;52.83;19.98;;;;;;;-11.55;66.86;100480.50;1745553;82;21019;-74
2021/12/22 02:07:49;;;;;;;70.15;24.15;;;;;;;-11.59;66.86;100485.10;1757984;78;21012;-73
2021/12/22 02:10:34;;;;;;;73.47;25.23;;;;;;;-11.64;66.85;100490.16;1788829;78;20929;-74
2021/12/22 02:12:50;;;;;;;61.33;24.07;;;;;;;-11.69;66.84;100486.69;1791501;79;22804;-73
2021/12/22 02:15:14;;;;;;;60.33;24.32;;;;;;;-11.74;66.83;100488.34;1791956;80;20987;-73
2021/12/22 02:17:41;;;;;;;62.65;24.75;;;;;;;-11.79;66.86;100485.31;1791850;80;21000;-76
2021/12/22 02:20:09;;;;;;;55.83;20.62;;;;;;;-11.82;66.89;100486.14;1794617;78;21035;-73
2021/12/22 02:22:39;;;;;;;46.45;18.50;;;;;;;-11.85;66.90;100492.06;1824374;78;20936;-73
2021/12/22 02:25:13;;;;;;;31.95;13.40;;;;;;;-11.86;66.93;100490.77;1806023;78;21833;-75
2021/12/22 02:27:40;;;;;;;26.15;11.22;;;;;;;-11.91;66.88;100496.21;1791669;80;21483;-73
2021/12/22 02:30:06;;;;;;;22.52;10.13;;;;;;;-11.97;66.80;100497.39;1781304;78;21004;-74
2021/12/22 02:33:08;;;;;;;20.80;9.95;;;;;;;-12.01;66.82;100502.02;1823677;78;20969;-74
2021/12/22 02:35:24;;;;;;;19.45;10.38;;;;;;;-12.06;66.82;100506.17;1824119;78;20928;-74
2021/12/22 02:37:46;;;;;;;17.27;10.13;;;;;;;-12.12;66.81;100506.11;1767833;78;21803;-74
2021/12/22 02:40:16;;;;;;;20.15;10.55;;;;;;;-12.18;66.79;100516.62;1766164;80;20993;-74
2021/12/22 02:42:42;;;;;;;21.23;11.45;;;;;;;-12.23;66.74;100514.86;1775182;78;21047;-74
2021/12/22 02:45:16;;;;;;;22.22;11.00;;;;;;;-12.31;66.72;100519.84;1760137;78;21497;-74
2021/12/22 02:47:43;;;;;;;21.55;11.25;;;;;;;-12.38;66.74;100519.30;1754469;81;21004;-74
2021/12/22 02:50:11;;;;;;;30.27;13.15;;;;;;;-12.42;66.77;100522.64;1764062;78;22180;-73
2021/12/22 02:53:28;;;;;;;31.12;13.38;;;;;;;-12.44;66.81;100524.31;1820060;78;20949;-74
2021/12/22 02:55:08;;;;;;;32.00;13.25;;;;;;;-12.48;66.80;100525.92;1793674;78;20936;-74
2021/12/22 02:57:42;;;;;;;35.03;13.83;;;;;;;-12.50;66.87;100525.47;1824340;78;21094;-74
2021/12/22 03:05:25;;;;;;;34.67;14.20;;;;;;;-12.57;66.91;100541.05;1792051;80;20978;-74
2021/12/22 03:07:52;;;;;;;26.42;12.78;;;;;;;-12.59;66.95;100531.68;1780375;79;21038;-74
2021/12/22 03:10:19;;;;;;;23.73;10.90;;;;;;;-12.59;66.99;100541.44;1800325;79;21521;-74
2021/12/22 03:12:47;;;;;;;24.80;10.45;;;;;;;-12.61;66.98;100540.56;1754036;81;20948;-73
2021/12/22 03:15:15;;;;;;;17.17;9.55;;;;;;;-12.60;67.03;100538.87;1756633;79;21811;-73
2021/12/22 03:17:41;;;;;;;20.05;10.45;;;;;;;-12.62;67.12;100536.31;1748921;82;21036;-73
2021/12/22 03:20:10;;;;;;;17.37;8.88;;;;;;;-12.59;67.18;100541.44;1781483;79;21435;-74
2021/12/22 03:22:38;;;;;;;15.78;9.13;;;;;;;-12.56;67.23;100543.17;1806774;79;21054;-74
2021/12/22 03:25:13;;;;;;;15.65;7.53;;;;;;;-12.53;67.28;100539.42;1774580;80;20941;-74
2021/12/22 03:27:34;;;;;;;14.53;7.60;;;;;;;-12.52;67.27;100551.31;1818725;78;21818;-74
2021/12/22 03:30:00;;;;;;;14.58;7.37;;;;;;;-12.55;67.33;100548.28;1818212;79;21082;-75
2021/12/22 03:32:27;;;;;;;14.55;7.03;;;;;;;-12.54;67.36;100551.70;1774687;79;20948;-73
2021/12/22 03:34:53;;;;;;;15.15;6.58;;;;;;;-12.53;67.40;100550.88;1781364;80;21002;-74
2021/12/22 03:37:19;;;;;;;15.78;8.45;;;;;;;-12.53;67.42;100552.15;1786430;80;21027;-74
2021/12/22 03:39:46;;;;;;;16.97;8.88;;;;;;;-12.54;67.45;100552.98;1787327;79;22781;-74
2021/12/22 03:42:13;;;;;;;16.77;8.18;;;;;;;-12.53;67.53;100553.42;1779082;79;20988;-74
2021/12/22 03:44:40;;;;;;;16.40;9.00;;;;;;;-12.53;67.55;100557.23;1786368;80;21425;-74
2021/12/22 03:47:07;;;;;;;13.58;8.28;;;;;;;-12.53;67.59;100558.51;1786408;80;20947;-74
2021/12/22 03:49:34;;;;;;;15.18;7.62;;;;;;;-12.53;67.58;100558.51;1786318;79;21003;-74
2021/12/22 03:52:01;;;;;;;16.25;8.38;;;;;;;-12.51;67.62;100569.56;1763011;80;22205;-73
2021/12/22 03:54:27;;;;;;;14.47;8.13;;;;;;;-12.51;67.64;100569.56;1786355;80;20967;-74
2021/12/22 03:56:54;;;;;;;13.88;6.92;;;;;;;-12.52;67.62;100571.25;1786444;80;21043;-74
2021/12/22 03:59:20;;;;;;;14.28;8.33;;;;;;;-12.51;67.67;100572.10;1786412;80;21601;-73
2021/12/22 04:01:47;;;;;;;13.32;7.55;;;;;;;-12.51;67.71;100569.56;1771857;79;20944;-74
2021/12/22 04:04:17;;;;;;;14.90;7.70;;;;;;;-12.49;67.72;100579.34;1816011;79;21794;-74
2021/12/22 04:06:44;;;;;;;17.35;7.75;;;;;;;-12.49;67.78;100583.16;1729159;83;21002;-74
2021/12/22 04:09:11;;;;;;;17.82;9.23;;;;;;;-12.48;67.82;100581.91;1767620;79;21023;-74
2021/12/22 04:11:37;;;;;;;18.60;8.75;;;;;;;-12.47;67.79;100586.58;1767326;79;21607;-73
2021/12/22 04:14:04;;;;;;;17.70;9.28;;;;;;;-12.47;67.74;100586.58;1774361;79;21001;-74
2021/12/22 04:16:31;;;;;;;19.07;8.85;;;;;;;-12.50;67.71;100590.35;1748878;81;21829;-74
2021/12/22 04:18:58;;;;;;;16.23;7.97;;;;;;;-12.51;67.81;100586.09;1748921;81;20937;-74
2021/12/22 04:21:25;;;;;;;13.88;7.03;;;;;;;-12.50;67.91;100583.58;1749860;80;21092;-74
2021/12/22 04:23:51;;;;;;;14.38;7.40;;;;;;;-12.48;67.89;100587.41;1756152;79;21008;-73
2021/12/22 04:26:18;;;;;;;11.88;6.75;;;;;;;-12.48;67.94;100586.14;1756383;80;21404;-74
2021/12/22 04:28:44;;;;;;;15.40;6.85;;;;;;;-12.48;68.00;100584.87;1786347;80;21706;-73
2021/12/22 04:31:11;;;;;;;18.02;8.23;;;;;;;-12.45;68.16;100586.18;1781334;80;20992;-74
2021/12/22 04:33:38;;;;;;;14.90;7.45;;;;;;;-12.44;68.39;100586.65;1782608;79;21008;-74
2021/12/22 04:36:05;;;;;;;16.05;8.30;;;;;;;-12.40;68.58;100590.95;1753857;81;21614;-74
2021/12/22 04:38:31;;;;;;;15.30;7.25;;;;;;;-12.37;68.68;100592.67;1754036;81;21004;-73
2021/12/22 04:40:59;;;;;;;13.85;5.78;;;;;;;-12.34;68.74;100595.30;1762979;79;21530;-74
2021/12/22 04:43:26;;;;;;;12.25;6.33;;;;;;;-12.27;68.86;100597.08;1786250;80;20879;-74
2021/12/22 04:45:52;;;;;;;13.98;6.90;;;;;;;-12.23;68.98;100595.05;1784426;79;20988;-74
2021/12/22 04:48:19;;;;;;;9.20;5.12;;;;;;;-12.18;69.07;100604.45;1780992;79;21130;-74
2021/12/22 04:50:45;;;;;;;13.32;6.60;;;;;;;-12.14;69.11;100606.23;1779704;79;20963;-74
2021/12/22 04:53:24;;;;;;;10.75;5.17;;;;;;;-12.10;69.40;100611.36;1758584;81;22663;-74
2021/12/22 04:55:40;;;;;;;11.78;5.80;;;;;;;-12.05;69.52;100614.86;1785771;79;21490;-74
2021/12/22 04:58:07;;;;;;;15.68;7.30;;;;;;;-12.00;69.49;100615.35;1785535;80;20938;-74
2021/12/22 05:00:36;;;;;;;28.30;13.28;;;;;;;-11.96;69.58;100619.67;1757322;80;21074;-73
2021/12/22 05:03:03;;;;;;;19.85;8.53;;;;;;;-11.91;69.57;100624.83;1798027;79;20980;-72
2021/12/22 05:05:29;;;;;;;23.35;10.78;;;;;;;-11.89;69.55;100625.70;1792154;79;22149;-73
2021/12/22 05:07:56;;;;;;;29.18;13.10;;;;;;;-11.87;69.49;100632.55;1776041;79;20934;-73
2021/12/22 05:10:23;;;;;;;48.80;19.37;;;;;;;-11.86;69.49;100631.72;1785101;79;20981;-75
2021/12/22 05:12:50;;;;;;;23.25;10.15;;;;;;;-11.84;69.57;100635.55;1776224;80;21496;-70
2021/12/22 05:15:23;;;;;;;16.48;7.37;;;;;;;-11.81;69.53;100643.23;1774364;80;20924;-70
2021/12/22 05:20:21;;;;;;;16.45;8.93;;;;;;;-11.80;69.51;100642.81;1700420;83;21021;-77
2021/12/22 05:22:48;;;;;;;14.93;7.15;;;;;;;-11.77;69.52;100641.16;1693317;81;21082;-74
2021/12/22 05:25:15;;;;;;;15.25;8.35;;;;;;;-11.79;69.40;100641.52;1731623;81;21110;-74
2021/12/22 05:27:41;;;;;;;13.50;8.15;;;;;;;-11.80;69.42;100646.63;1737980;81;21056;-73
2021/12/22 05:30:10;;;;;;;12.47;6.33;;;;;;;-11.81;69.40;100648.33;1734428;82;22617;-75
2021/12/22 05:32:37;;;;;;;18.80;8.03;;;;;;;-11.82;69.39;100655.53;1749143;81;21000;-74
2021/12/22 05:35:07;;;;;;;18.10;8.55;;;;;;;-11.84;69.38;100650.84;1740299;81;21095;-73
2021/12/22 05:37:34;;;;;;;29.40;13.50;;;;;;;-11.84;69.38;100655.93;1744230;81;21023;-73
2021/12/22 05:40:01;;;;;;;25.02;11.80;;;;;;;-11.81;69.40;100658.52;1754942;81;21028;-71
2021/12/22 05:42:28;;;;;;;20.68;10.05;;;;;;;-11.82;69.41;100655.95;1694726;83;21912;-75
2021/12/22 05:44:55;;;;;;;22.65;10.32;;;;;;;-11.81;69.54;100666.58;1724392;81;21249;-72
2021/12/22 05:47:22;;;;;;;33.98;14.53;;;;;;;-11.80;69.53;100667.02;1762770;80;20957;-70
2021/12/22 05:49:49;;;;;;;25.82;12.13;;;;;;;-11.78;69.50;100669.98;1768486;80;21392;-70
2021/12/22 05:52:15;;;;;;;25.80;11.38;;;;;;;-11.79;69.43;100674.64;1717415;82;21478;-71
2021/12/22 05:54:42;;;;;;;20.90;10.08;;;;;;;-11.78;69.41;100676.35;1761419;80;21802;-70
2021/12/22 05:57:09;;;;;;;21.05;8.45;;;;;;;-11.80;69.32;100680.61;1767770;80;20968;-70
2021/12/22 05:59:36;;;;;;;15.45;8.15;;;;;;;-11.81;69.29;100678.04;1778015;80;20948;-70
2021/12/22 06:02:03;;;;;;;17.45;8.58;;;;;;;-11.82;69.32;100678.45;1771863;80;21037;-70
2021/12/22 06:04:30;;;;;;;18.15;8.98;;;;;;;-11.82;69.34;100686.52;1771466;81;21499;-70
2021/12/22 06:06:57;;;;;;;20.12;8.95;;;;;;;-11.82;69.33;100683.55;1771501;81;21947;-70
2021/12/22 06:09:23;;;;;;;17.92;8.18;;;;;;;-11.82;69.27;100685.25;1774864;79;20964;-70
2021/12/22 06:11:51;;;;;;;18.52;8.63;;;;;;;-11.84;69.22;100686.50;1778292;80;21447;-70
2021/12/22 06:14:18;;;;;;;19.10;9.40;;;;;;;-11.85;69.25;100689.88;1778040;80;21452;-70
2021/12/22 06:16:44;;;;;;;19.85;8.63;;;;;;;-11.83;69.27;100694.58;1778215;80;20995;-70
2021/12/22 06:19:13;;;;;;;20.08;8.78;;;;;;;-11.81;69.33;100696.73;1775917;79;21819;-70
2021/12/22 06:21:39;;;;;;;22.40;9.53;;;;;;;-11.81;69.35;100689.08;1774728;79;20988;-70
2021/12/22 06:24:05;;;;;;;20.20;9.13;;;;;;;-11.81;69.40;100688.23;1741139;81;20949;-70
2021/12/22 06:26:32;;;;;;;18.98;8.25;;;;;;;-11.80;69.51;100694.61;1770786;80;21043;-70
2021/12/22 06:28:58;;;;;;;22.55;10.23;;;;;;;-11.76;69.56;100697.64;1777169;79;20964;-70
2021/12/22 06:31:25;;;;;;;24.75;11.45;;;;;;;-11.75;69.54;100695.53;1775490;79;22418;-70
2021/12/22 06:33:52;;;;;;;22.58;9.98;;;;;;;-11.75;69.67;100697.22;1741897;81;21046;-70
2021/12/22 06:36:19;;;;;;;25.23;11.50;;;;;;;-11.73;69.78;100698.95;1782061;79;21051;-70
2021/12/22 06:38:45;;;;;;;25.70;11.08;;;;;;;-11.68;69.86;100701.14;1732015;82;21480;-72
2021/12/22 06:41:12;;;;;;;26.37;11.20;;;;;;;-11.61;69.93;100703.38;1738652;81;21070;-74
2021/12/22 06:43:38;;;;;;;22.70;11.00;;;;;;;-11.56;69.96;100704.31;1716698;81;21789;-73
2021/12/22 06:46:05;;;;;;;23.73;10.65;;;;;;;-11.50;70.00;100706.94;1716502;83;21010;-70
2021/12/22 06:48:31;;;;;;;20.23;10.38;;;;;;;-11.46;70.04;100709.14;1716722;83;21530;-73
2021/12/22 06:50:58;;;;;;;19.55;9.13;;;;;;;-11.40;70.10;100718.98;1707932;82;21480;-72
2021/12/22 06:53:24;;;;;;;18.52;8.85;;;;;;;-11.35;70.18;100721.62;1721816;81;21019;-71
2021/12/22 06:55:50;;;;;;;21.15;9.80;;;;;;;-11.29;70.27;100726.40;1732682;82;22166;-71
2021/12/22 06:58:16;;;;;;;18.62;8.63;;;;;;;-11.20;70.36;100727.34;1757241;81;21024;-71
2021/12/22 07:00:43;;;;;;;16.90;9.33;;;;;;;-11.10;70.48;100732.58;1749593;80;22147;-70
2021/12/22 07:03:09;;;;;;;15.95;9.03;;;;;;;-11.00;70.52;100733.56;1745794;81;21277;-71
2021/12/22 07:05:36;;;;;;;19.70;9.98;;;;;;;-10.90;70.57;100731.61;1743759;80;21462;-75
2021/12/22 07:08:03;;;;;;;46.30;21.02;;;;;;;-10.80;70.61;100737.27;1743763;81;22989;-75
2021/12/22 07:10:30;;;;;;;17.40;9.00;;;;;;;-10.71;70.60;100740.33;1731748;83;21428;-71
2021/12/22 07:12:56;;;;;;;38.80;15.90;;;;;;;-10.64;70.52;100742.13;1757084;79;21447;-68
2021/12/22 07:15:23;;;;;;;15.23;8.05;;;;;;;-10.55;70.54;100743.93;1772716;78;20981;-68
2021/12/22 07:17:50;;;;;;;17.12;8.93;;;;;;;-10.47;70.61;100747.44;1771292;79;20858;-69
2021/12/22 07:20:17;;;;;;;15.38;8.25;;;;;;;-10.41;70.57;100735.61;1760876;81;22520;-68
2021/12/22 07:22:43;;;;;;;25.57;11.15;;;;;;;-10.34;70.38;100744.59;1799826;78;21008;-68
2021/12/22 07:25:12;;;;;;;38.98;16.37;;;;;;;-10.31;70.32;100737.84;1824654;78;20935;-68
2021/12/22 07:27:38;;;;;;;30.97;14.10;;;;;;;-10.26;70.36;100741.71;1772690;78;20957;-69
2021/12/22 07:30:07;;;;;;;27.07;12.60;;;;;;;-10.25;70.22;100737.89;1807682;78;21043;-71
2021/12/22 07:32:33;;;;;;;27.95;11.75;;;;;;;-10.25;70.13;100743.42;1805729;78;22475;-70
2021/12/22 07:35:20;;;;;;;15.55;8.38;;;;;;;-10.20;70.14;100746.86;1803921;78;21076;-70
2021/12/22 07:38:08;;;;;;;21.45;11.43;;;;;;;-10.14;70.06;100746.48;1774075;80;20980;-71
2021/12/22 07:40:36;;;;;;;26.33;12.65;;;;;;;-10.11;69.92;100752.92;1773003;80;20977;-70
2021/12/22 07:43:03;;;;;;;18.67;10.00;;;;;;;-10.05;69.84;100745.73;1749495;82;21090;-71
2021/12/22 07:45:30;;;;;;;21.02;11.03;;;;;;;-9.99;69.67;100756.02;1749513;82;21875;-70
2021/12/22 07:47:57;;;;;;;20.80;11.48;;;;;;;-9.91;69.75;100740.77;1749487;82;20945;-69
2021/12/22 07:50:23;;;;;;;17.12;9.25;;;;;;;-9.87;69.64;100745.91;1753450;80;20979;-70
2021/12/22 07:52:50;;;;;;;12.95;8.43;;;;;;;-9.82;69.34;100748.09;1791502;80;20944;-70
2021/12/22 07:55:16;;;;;;;13.95;7.17;;;;;;;-9.77;69.24;100742.16;1781062;78;21401;-71
2021/12/22 07:57:43;;;;;;;12.65;7.42;;;;;;;-9.72;68.94;100747.76;1759278;80;22645;-71
2021/12/22 08:00:12;;;;;;;12.70;6.15;;;;;;;-9.73;68.45;100750.30;1786663;78;21304;-70
2021/12/22 08:02:41;;;;;;;12.10;6.53;;;;;;;-9.71;68.04;100755.00;1824999;78;21102;-70
2021/12/22 08:05:08;;;;;;;9.30;5.40;;;;;;;-9.71;67.80;100754.58;1795013;78;21472;-70
2021/12/22 08:07:34;;;;;;;9.65;4.33;;;;;;;-9.68;67.29;100748.63;1785530;78;21058;-71
2021/12/22 08:10:05;;;;;;;67.25;28.67;;;;;;;-9.67;66.74;100752.47;1775764;78;21866;-70
2021/12/22 08:12:33;;;;;;;21.35;10.78;;;;;;;-9.59;67.00;100752.13;1745301;80;20945;-69
2021/12/22 08:14:59;;;;;;;48.85;19.98;;;;;;;-9.46;66.65;100756.90;1759158;80;20956;-69
2021/12/22 08:17:27;;;;;;;19.87;9.55;;;;;;;-9.35;66.26;100759.57;1754234;80;21110;-69
2021/12/22 08:19:54;;;;;;;20.50;11.12;;;;;;;-9.29;65.99;100754.05;1786587;80;21466;-69
2021/12/22 08:22:20;;;;;;;36.73;18.90;;;;;;;-9.28;65.39;100762.16;1786177;80;21809;-69
2021/12/22 08:24:47;;;;;;;16.27;8.83;;;;;;;-9.21;65.19;100761.78;1786363;80;21066;-70
2021/12/22 08:27:14;;;;;;;14.60;8.73;;;;;;;-9.17;64.85;100766.49;1786397;80;20984;-70
2021/12/22 08:29:42;;;;;;;11.48;6.17;;;;;;;-9.13;65.01;100762.70;1786265;80;20944;-71
2021/12/22 08:32:11;;;;;;;12.30;5.70;;;;;;;-9.04;65.05;100763.19;1786507;80;20984;-70
2021/12/22 08:34:41;;;;;;;9.75;5.53;;;;;;;-8.96;64.93;100767.94;1786820;80;20932;-68
2021/12/22 08:39:55;;;;;;;10.55;5.25;;;;;;;-8.90;64.47;100764.11;1786597;80;20987;-70
2021/12/22 08:42:22;;;;;;;10.90;6.20;;;;;;;-8.97;63.99;100767.08;1786320;80;20976;-67
2021/12/22 08:44:49;;;;;;;9.93;5.42;;;;;;;-9.03;64.18;100762.34;1785377;80;21026;-68
2021/12/22 08:47:16;;;;;;;10.25;5.53;;;;;;;-9.04;64.31;100764.47;1785278;80;21832;-69
2021/12/22 08:49:44;;;;;;;9.10;5.58;;;;;;;-9.00;64.43;100766.19;1785041;80;21162;-69
2021/12/22 08:52:10;;;;;;;10.65;5.08;;;;;;;-8.94;64.35;100766.23;1785509;80;21474;-69
2021/12/22 08:54:37;;;;;;;8.30;5.22;;;;;;;-8.92;64.01;100767.09;1785449;80;21273;-69
2021/12/22 08:57:05;;;;;;;10.82;6.00;;;;;;;-8.93;63.87;100770.50;1785172;80;21031;-70
2021/12/22 08:59:32;;;;;;;10.50;5.58;;;;;;;-8.98;63.46;100765.77;1755779;80;22460;-68
2021/12/22 09:01:58;;;;;;;12.68;5.50;;;;;;;-9.01;63.67;100772.16;1786320;80;22285;-68
2021/12/22 09:04:25;;;;;;;10.60;5.87;;;;;;;-9.02;63.75;100771.73;1785584;80;21078;-70
2021/12/22 09:06:53;;;;;;;9.88;6.10;;;;;;;-9.05;63.83;100773.00;1785151;80;21019;-70
2021/12/22 09:09:20;;;;;;;9.80;5.80;;;;;;;-9.02;63.91;100768.73;1785094;80;21361;-70
2021/12/22 09:11:47;;;;;;;9.15;5.12;;;;;;;-8.95;64.11;100765.38;1781542;80;21800;-70
2021/12/22 09:14:14;;;;;;;10.53;5.15;;;;;;;-8.88;64.08;100759.00;1782886;80;20984;-72
2021/12/22 09:16:42;;;;;;;8.48;4.58;;;;;;;-8.84;63.80;100771.84;1784985;80;21032;-71
2021/12/22 09:19:08;;;;;;;10.15;5.67;;;;;;;-8.82;63.69;100759.89;1785311;80;21490;-71
2021/12/22 09:21:35;;;;;;;9.98;5.42;;;;;;;-8.80;63.41;100774.83;1784988;78;21039;-75
2021/12/22 09:24:02;;;;;;;10.70;5.25;;;;;;;-8.74;63.58;100774.02;1785157;80;21743;-76
2021/12/22 09:26:28;;;;;;;9.18;5.28;;;;;;;-8.75;63.07;100771.03;1785021;80;21024;-77
2021/12/22 09:28:55;;;;;;;8.98;4.62;;;;;;;-8.73;62.88;100774.03;1785063;80;21031;-75
2021/12/22 09:31:21;;;;;;;9.95;5.50;;;;;;;-8.74;63.03;100781.70;1785061;80;21067;-75
2021/12/22 09:33:48;;;;;;;9.98;4.80;;;;;;;-8.75;62.71;100778.72;1785282;80;21031;-75
2021/12/22 09:36:15;;;;;;;10.60;5.85;;;;;;;-8.77;62.80;100767.19;1785124;80;22790;-76
2021/12/22 09:38:41;;;;;;;9.53;5.70;;;;;;;-8.72;63.14;100769.34;1784960;80;21023;-75
2021/12/22 09:41:08;;;;;;;9.63;5.45;;;;;;;-8.61;63.21;100773.66;1785062;80;21479;-74
2021/12/22 09:43:34;;;;;;;9.63;4.62;;;;;;;-8.49;63.18;100769.47;1788595;79;21059;-74
2021/12/22 09:46:05;;;;;;;8.40;4.95;;;;;;;-8.45;62.29;100762.64;1785001;80;21051;-74
2021/12/22 09:53:48;;;;;;;7.85;4.83;;;;;;;-8.55;62.29;100766.86;1785081;80;21030;-71
2021/12/22 09:56:21;;;;;;;9.00;4.95;;;;;;;-8.57;61.75;100766.01;1785075;80;21007;-72
2021/12/22 09:58:48;;;;;;;10.30;5.62;;;;;;;-8.67;61.63;100761.70;1785159;80;21038;-68
2021/12/22 10:01:20;;;;;;;8.15;4.58;;;;;;;-8.62;62.07;100762.98;1784936;78;22370;-68
2021/12/22 10:03:45;;;;;;;8.18;5.12;;;;;;;-8.51;62.15;100754.48;1753032;80;21047;-66
2021/12/22 10:06:11;;;;;;;10.18;5.53;;;;;;;-8.40;62.14;100751.54;1754127;80;22022;-67
2021/12/22 10:08:40;;;;;;;24.35;12.90;;;;;;;-8.30;62.24;100756.23;1782237;80;21012;-67
2021/12/22 10:11:11;;;;;;;28.92;14.45;;;;;;;-8.18;62.35;100750.31;1709266;81;21037;-67
2021/12/22 10:13:45;;;;;;;28.05;13.80;;;;;;;-8.00;62.32;100752.08;1777173;79;21071;-71
2021/12/22 10:16:20;;;;;;;43.75;21.25;;;;;;;-7.87;62.12;100753.37;1780907;79;20944;-72
2021/12/22 10:18:47;;;;;;;36.70;17.40;;;;;;;-7.75;62.33;100749.95;1776051;80;21040;-68
2021/12/22 10:21:21;;;;;;;55.08;24.85;;;;;;;-7.75;61.22;100751.24;1776550;79;21019;-68
2021/12/22 10:23:51;;;;;;;39.08;17.40;;;;;;;-7.80;60.86;100757.66;1752092;81;21531;-72
2021/12/22 10:26:25;;;;;;;10.38;5.92;;;;;;;-7.85;60.61;100755.93;1765772;81;49271;-71
2021/12/22 10:29:05;;;;;;;9.43;5.67;;;;;;;-7.87;60.61;100756.36;1765709;81;21044;-69
2021/12/22 10:31:41;;;;;;;11.03;6.08;;;;;;;-7.87;60.32;100758.92;1765857;81;21008;-70
2021/12/22 10:34:12;;;;;;;13.15;8.18;;;;;;;-7.91;60.33;100766.16;1765796;81;21016;-69
2021/12/22 10:36:53;;;;;;;15.08;7.35;;;;;;;-8.00;60.24;100761.05;1765701;81;21079;-70
2021/12/22 10:39:27;;;;;;;14.85;7.37;;;;;;;-8.01;60.27;100765.28;1769766;81;21828;-70
2021/12/22 10:42:07;;;;;;;10.75;6.12;;;;;;;-8.03;60.29;100765.72;1773655;80;21479;-69
2021/12/22 10:44:42;;;;;;;8.80;5.28;;;;;;;-8.04;60.41;100766.58;1776224;80;21465;-71
2021/12/22 10:49:14;;;;;;;10.78;5.60;;;;;;;-8.02;60.48;100761.45;1776790;80;21016;-70
2021/12/22 10:50:06;;;;;;;9.08;5.22;;;;;;;-8.03;60.29;100756.74;1773739;80;21071;-71
2021/12/22 10:52:33;;;;;;;8.70;5.55;;;;;;;-8.02;60.29;100764.01;1777070;80;21784;-71
2021/12/22 10:55:12;;;;;;;10.10;5.75;;;;;;;-8.08;60.29;100769.99;1755235;80;20889;-71
2021/12/22 10:57:41;;;;;;;7.45;4.72;;;;;;;-8.08;60.63;100764.44;1775148;80;20981;-70
2021/12/22 11:00:22;;;;;;;9.20;4.80;;;;;;;-8.04;60.49;100770.84;1765616;81;21055;-70
2021/12/22 11:03:08;;;;;;;10.93;5.37;;;;;;;-8.03;60.56;100771.27;1765822;81;21079;-69
2021/12/22 11:05:49;;;;;;;8.98;4.95;;;;;;;-8.07;60.50;100768.71;1795129;79;21833;-71
2021/12/22 11:08:24;;;;;;;7.83;4.65;;;;;;;-8.03;60.64;100766.14;1812823;79;20995;-70
2021/12/22 11:10:52;;;;;;;8.60;4.45;;;;;;;-8.00;60.31;100771.30;1811716;79;20992;-70
2021/12/22 11:13:23;;;;;;;10.18;5.60;;;;;;;-8.09;60.08;100763.16;1809617;79;21066;-69
2021/12/22 11:15:50;;;;;;;8.50;4.33;;;;;;;-8.16;60.37;100766.55;1794729;79;20980;-68
2021/12/22 11:18:34;;;;;;;7.42;4.45;;;;;;;-8.25;59.98;100754.56;1786546;80;23009;-67
2021/12/22 11:21:12;;;;;;;9.18;4.92;;;;;;;-8.25;60.17;100748.58;1786695;80;21351;-67
2021/12/22 11:23:39;;;;;;;8.03;4.75;;;;;;;-8.33;60.07;100757.52;1786407;80;20960;-68
2021/12/22 11:26:06;;;;;;;6.85;3.83;;;;;;;-8.32;60.14;100749.41;1786340;80;20974;-69
2021/12/22 11:28:34;;;;;;;8.00;4.90;;;;;;;-8.28;60.44;100754.98;1786567;80;21008;-69
2021/12/22 11:31:02;;;;;;;8.10;5.20;;;;;;;-8.28;60.54;100760.97;1786515;80;21823;-69
2021/12/22 11:33:30;;;;;;;10.58;4.50;;;;;;;-8.27;60.75;100761.39;1786583;80;20983;-70
2021/12/22 11:35:57;;;;;;;7.47;3.83;;;;;;;-8.24;61.19;100767.80;1756356;80;20940;-69
2021/12/22 11:38:25;;;;;;;9.48;4.90;;;;;;;-8.21;61.13;100768.23;1786461;80;20992;-68